createdAt,value
2022-12-15T00:01:38.206Z,1.10
2022-12-15T00:04:29.954Z,1.06
2022-12-15T00:07:21.595Z,1.06
2022-12-15T00:10:15.166Z,1.19
2022-12-15T00:13:06.840Z,1.20
2022-12-15T00:15:59.141Z,1.27
2022-12-15T00:18:50.629Z,1.31
2022-12-15T00:21:42.357Z,1.37
2022-12-15T00:24:34.213Z,1.28
2022-12-15T00:27:27.460Z,1.33
2022-12-15T00:30:19.249Z,1.29
2022-12-15T00:33:11.339Z,1.33
2022-12-15T00:36:03.220Z,1.26
2022-12-15T00:38:47.677Z,1.38
2022-12-15T00:41:21.994Z,1.37
2022-12-15T00:43:57.868Z,1.42
2022-12-15T00:46:50.174Z,1.49
2022-12-15T00:49:42.922Z,1.52
2022-12-15T00:52:37.215Z,1.41
2022-12-15T00:55:29.369Z,1.40
2022-12-15T00:58:21.264Z,1.45
2022-12-15T01:01:14.684Z,1.37
2022-12-15T01:04:06.476Z,1.31
2022-12-15T01:06:58.598Z,1.33
2022-12-15T01:09:50.002Z,1.33
2022-12-15T01:12:41.984Z,1.48
2022-12-15T01:15:33.749Z,1.44
2022-12-15T01:18:27.496Z,1.45
2022-12-15T01:21:03.559Z,1.52
2022-12-15T01:23:39.049Z,1.61
2022-12-15T01:26:13.241Z,1.63
2022-12-15T01:28:47.748Z,1.53
2022-12-15T01:31:21.927Z,1.45
2022-12-15T01:33:57.866Z,1.40
2022-12-15T01:36:32.143Z,1.47
2022-12-15T01:39:06.784Z,1.34
2022-12-15T01:41:40.157Z,1.35
2022-12-15T01:44:19.353Z,1.19
2022-12-15T01:46:55.948Z,1.13
2022-12-15T01:49:33.568Z,1.24
2022-12-15T01:52:09.783Z,1.20
2022-12-15T01:54:48.620Z,1.35
2022-12-15T01:57:26.672Z,1.24
2022-12-15T02:00:05.424Z,1.36
2022-12-15T02:02:41.239Z,1.35
2022-12-15T02:05:17.093Z,1.34
2022-12-15T02:07:51.482Z,1.43
2022-12-15T02:10:31.620Z,1.49
2022-12-15T02:13:15.017Z,1.47
2022-12-15T02:15:56.303Z,1.39
2022-12-15T02:18:37.247Z,1.56
2022-12-15T02:21:19.832Z,1.58
2022-12-15T02:24:36.665Z,1.48
2022-12-15T02:28:00.415Z,1.52
2022-12-15T02:30:46.265Z,1.55
2022-12-15T02:33:27.420Z,1.60
2022-12-15T02:36:13.821Z,1.62
2022-12-15T02:38:48.291Z,1.48
2022-12-15T02:41:38.607Z,1.43
2022-12-15T02:44:18.082Z,1.50
2022-12-15T02:47:16.743Z,1.43
2022-12-15T02:50:07.003Z,1.44
2022-12-15T02:52:53.251Z,1.40
2022-12-15T02:55:35.799Z,1.52
2022-12-15T02:58:16.430Z,1.21
2022-12-15T03:00:56.507Z,1.13
2022-12-15T03:03:34.427Z,1.03
2022-12-15T03:06:11.621Z,1.05
2022-12-15T03:08:46.465Z,1.09
2022-12-15T03:11:20.900Z,1.26
2022-12-15T03:13:55.580Z,1.40
2022-12-15T03:16:30.094Z,1.39
2022-12-15T03:19:05.693Z,1.21
2022-12-15T03:21:40.146Z,1.24
2022-12-15T03:24:14.409Z,1.37
2022-12-15T03:26:50.292Z,1.35
2022-12-15T03:29:24.510Z,1.35
2022-12-15T03:31:59.047Z,1.37
2022-12-15T03:34:34.648Z,1.25
2022-12-15T03:37:09.283Z,1.20
2022-12-15T03:39:43.571Z,1.35
2022-12-15T03:42:38.522Z,1.27
2022-12-15T03:45:12.890Z,1.21
2022-12-15T03:47:48.568Z,1.05
2022-12-15T03:50:26.716Z,0.80
2022-12-15T03:53:03.468Z,0.99
2022-12-15T03:55:37.724Z,0.89
2022-12-15T03:58:12.156Z,0.68
2022-12-15T04:00:46.485Z,0.65
2022-12-15T04:03:21.799Z,0.79
2022-12-15T04:05:57.394Z,0.78
2022-12-15T04:08:32.364Z,0.75
2022-12-15T04:11:06.925Z,0.61
2022-12-15T04:13:41.313Z,0.48
2022-12-15T04:16:19.820Z,0.72
2022-12-15T04:19:08.750Z,0.76
2022-12-15T04:21:44.372Z,0.77
2022-12-15T04:24:36.403Z,0.73
2022-12-15T04:27:28.461Z,0.48
2022-12-15T04:30:20.772Z,0.68
2022-12-15T04:33:13.404Z,0.57
2022-12-15T04:36:06.977Z,0.69
2022-12-15T04:38:59.823Z,0.59
2022-12-15T04:41:51.779Z,0.56
2022-12-15T04:44:43.202Z,5.47
2022-12-15T04:47:35.333Z,3.29
2022-12-15T04:50:27.332Z,2.28
2022-12-15T04:53:27.560Z,2.08
2022-12-15T04:56:21.053Z,1.83
2022-12-15T04:59:13.520Z,1.61
2022-12-15T05:02:05.880Z,1.56
2022-12-15T05:04:58.300Z,1.29
2022-12-15T05:07:50.111Z,1.21
2022-12-15T05:10:42.477Z,1.09
2022-12-15T05:13:35.427Z,1.11
2022-12-15T05:16:27.906Z,1.02
2022-12-15T05:19:19.517Z,1.09
2022-12-15T05:22:11.579Z,1.13
2022-12-15T05:25:03.128Z,1.18
2022-12-15T05:27:55.276Z,1.15
2022-12-15T05:30:48.331Z,1.17
2022-12-15T05:33:22.794Z,1.24
2022-12-15T05:35:58.663Z,1.17
2022-12-15T05:38:33.337Z,3.60
2022-12-15T05:41:07.595Z,4.61
2022-12-15T05:43:42.108Z,3.17
2022-12-15T05:46:17.626Z,2.45
2022-12-15T05:48:52.126Z,2.19
2022-12-15T05:51:26.306Z,2.02
2022-12-15T05:54:00.794Z,1.86
2022-12-15T05:56:34.952Z,1.68
2022-12-15T05:59:09.748Z,1.57
2022-12-15T06:01:47.783Z,4.93
2022-12-15T06:04:22.345Z,3.49
2022-12-15T06:06:56.561Z,2.56
2022-12-15T06:09:31.006Z,2.24
2022-12-15T06:12:05.511Z,1.91
2022-12-15T06:14:40.005Z,1.68
2022-12-15T06:17:15.682Z,1.49
2022-12-15T06:19:50.367Z,1.46
2022-12-15T06:22:24.539Z,1.43
2022-12-15T06:24:59.041Z,1.39
2022-12-15T06:27:33.452Z,1.42
2022-12-15T06:30:08.889Z,1.62
2022-12-15T06:32:44.411Z,1.12
2022-12-15T06:35:18.936Z,1.16
2022-12-15T06:37:53.208Z,0.85
2022-12-15T06:40:27.783Z,5.19
2022-12-15T06:43:01.961Z,4.10
2022-12-15T06:45:36.573Z,2.83
2022-12-15T06:48:12.160Z,2.42
2022-12-15T06:50:46.715Z,2.16
2022-12-15T06:53:25.692Z,2.03
2022-12-15T06:56:03.854Z,1.66
2022-12-15T06:58:38.038Z,1.55
2022-12-15T07:01:12.876Z,1.27
2022-12-15T07:03:48.742Z,1.42
2022-12-15T07:06:24.325Z,1.38
2022-12-15T07:08:58.588Z,1.40
2022-12-15T07:11:33.205Z,1.32
2022-12-15T07:14:07.345Z,1.10
2022-12-15T07:16:41.911Z,1.14
2022-12-15T07:19:17.794Z,1.18
2022-12-15T07:21:53.007Z,1.31
2022-12-15T07:24:27.164Z,1.30
2022-12-15T07:27:01.816Z,5.61
2022-12-15T07:29:36.166Z,6.91
2022-12-15T07:32:10.678Z,5.88
2022-12-15T07:34:46.874Z,4.75
2022-12-15T07:37:22.792Z,3.72
2022-12-15T07:39:57.015Z,3.28
2022-12-15T07:42:31.777Z,2.99
2022-12-15T07:45:07.073Z,2.49
2022-12-15T07:47:41.810Z,2.24
2022-12-15T07:50:17.561Z,2.07
2022-12-15T07:52:52.658Z,1.94
2022-12-15T07:55:50.160Z,1.97
2022-12-15T07:58:21.690Z,1.72
2022-12-15T08:01:00.347Z,1.68
2022-12-15T08:03:35.783Z,1.76
2022-12-15T08:06:13.366Z,1.98
2022-12-15T08:08:50.816Z,1.86
2022-12-15T08:11:26.006Z,1.85
2022-12-15T08:14:02.968Z,1.90
2022-12-15T08:16:41.100Z,1.86
2022-12-15T08:19:16.939Z,1.92
2022-12-15T08:21:52.508Z,1.93
2022-12-15T08:24:27.325Z,2.09
2022-12-15T08:27:01.470Z,2.17
2022-12-15T08:29:52.463Z,2.16
2022-12-15T08:32:26.977Z,2.15
2022-12-15T08:35:01.389Z,2.07
2022-12-15T08:37:36.952Z,2.14
2022-12-15T08:40:12.248Z,2.17
2022-12-15T08:42:46.635Z,2.21
2022-12-15T08:45:21.085Z,2.16
2022-12-15T08:47:57.300Z,3.47
2022-12-15T08:50:32.117Z,5.67
2022-12-15T08:53:30.229Z,4.16
2022-12-15T08:56:05.952Z,3.27
2022-12-15T08:58:40.807Z,2.80
2022-12-15T09:01:22.776Z,2.47
2022-12-15T09:03:59.462Z,2.47
2022-12-15T09:06:36.834Z,2.49
2022-12-15T09:09:14.255Z,2.08
2022-12-15T09:11:49.018Z,2.16
2022-12-15T09:14:29.138Z,2.22
2022-12-15T09:17:04.286Z,2.35
2022-12-15T09:19:38.540Z,2.37
2022-12-15T09:22:13.025Z,2.37
2022-12-15T09:24:50.012Z,2.14
2022-12-15T09:27:24.516Z,2.25
2022-12-15T09:29:59.247Z,2.28
2022-12-15T09:32:33.831Z,2.26
2022-12-15T09:35:08.746Z,2.20
2022-12-15T09:37:50.005Z,2.38
2022-12-15T09:40:27.363Z,2.42
2022-12-15T09:43:32.875Z,2.45
2022-12-15T09:46:04.824Z,2.48
2022-12-15T09:48:43.064Z,6.04
2022-12-15T09:51:20.029Z,4.41
2022-12-15T09:53:55.894Z,7.40
2022-12-15T09:56:42.219Z,6.05
2022-12-15T09:59:27.477Z,5.24
2022-12-15T10:02:18.895Z,4.69
2022-12-15T10:05:02.080Z,4.01
2022-12-15T10:07:43.940Z,3.78
2022-12-15T10:10:33.895Z,3.64
2022-12-15T10:13:16.395Z,3.56
2022-12-15T10:15:58.844Z,3.18
2022-12-15T10:18:38.630Z,3.24
2022-12-15T10:21:15.064Z,3.36
2022-12-15T17:47:10.674Z,3.00
2022-12-15T17:49:47.419Z,3.00
2022-12-15T17:52:28.696Z,6.57
2022-12-15T17:55:04.534Z,8.34
2022-12-15T17:57:38.818Z,5.80
2022-12-15T18:00:21.434Z,4.60
2022-12-15T18:02:59.371Z,3.98
2022-12-15T18:05:33.712Z,3.61
2022-12-15T18:08:15.135Z,3.45
2022-12-15T18:10:50.719Z,3.23
2022-12-15T18:13:30.323Z,3.15
2022-12-15T18:16:08.059Z,3.05
2022-12-15T18:18:44.359Z,2.94
2022-12-15T18:21:19.435Z,2.82
2022-12-15T18:23:59.854Z,2.88
2022-12-15T18:26:38.042Z,2.77
2022-12-15T18:29:14.983Z,2.76
2022-12-15T18:31:50.627Z,2.75
2022-12-15T18:34:27.590Z,2.75
2022-12-15T18:37:01.795Z,2.72
2022-12-15T18:39:36.344Z,2.78
2022-12-15T18:42:16.110Z,2.85
2022-12-15T18:44:53.160Z,2.87
2022-12-15T18:47:27.841Z,2.72
2022-12-15T18:50:04.205Z,2.66
2022-12-15T18:52:38.938Z,2.67
2022-12-15T18:55:21.717Z,2.79
2022-12-15T18:57:56.364Z,2.77
2022-12-15T19:00:32.437Z,2.81
2022-12-15T19:03:07.042Z,2.80
2022-12-15T19:05:43.392Z,2.84
2022-12-15T19:08:20.339Z,2.74
2022-12-15T19:10:57.865Z,2.79
2022-12-15T19:13:35.085Z,2.80
2022-12-15T19:16:18.138Z,2.77
2022-12-15T19:19:13.898Z,2.81
2022-12-15T19:22:10.663Z,2.84
2022-12-15T19:24:58.649Z,2.80
2022-12-15T19:27:33.612Z,3.97
2022-12-15T19:30:16.491Z,7.71
2022-12-15T19:32:51.148Z,6.58
2022-12-15T19:35:25.899Z,4.95
2022-12-15T19:38:04.575Z,4.31
2022-12-15T19:40:39.206Z,3.86
2022-12-15T19:43:17.151Z,3.56
2022-12-15T19:45:52.038Z,3.35
2022-12-15T19:48:27.073Z,3.21
2022-12-15T19:51:01.540Z,3.15
2022-12-15T19:53:40.830Z,3.13
2022-12-15T19:56:17.929Z,3.02
2022-12-15T19:58:52.668Z,3.03
2022-12-15T20:01:27.395Z,3.04
2022-12-15T20:04:02.087Z,3.02
2022-12-15T20:06:36.583Z,2.91
2022-12-15T20:09:16.298Z,2.87
2022-12-15T20:11:50.529Z,2.86
2022-12-15T20:14:26.232Z,2.81
2022-12-15T20:17:00.347Z,2.84
2022-12-15T20:19:34.838Z,2.84
2022-12-15T20:22:15.451Z,2.81
2022-12-15T20:24:51.732Z,2.85
2022-12-15T20:27:25.934Z,2.82
2022-12-15T20:30:00.655Z,2.86
2022-12-15T20:32:38.393Z,2.89
2022-12-15T20:35:16.251Z,2.94
2022-12-15T20:37:52.647Z,2.97
2022-12-15T20:40:30.736Z,2.92
2022-12-15T20:43:10.334Z,2.95
2022-12-15T20:45:58.292Z,2.86
2022-12-15T20:48:34.859Z,2.90
2022-12-15T20:51:15.936Z,2.86
2022-12-15T20:53:51.283Z,2.84
2022-12-15T20:56:27.717Z,3.01
2022-12-15T20:59:02.099Z,3.03
2022-12-15T21:01:39.027Z,7.12
2022-12-15T21:04:25.532Z,8.70
2022-12-15T21:07:00.437Z,7.61
2022-12-15T21:09:34.986Z,5.47
2022-12-15T21:12:17.617Z,4.67
2022-12-15T21:14:52.210Z,4.04
2022-12-15T21:17:27.661Z,3.65
2022-12-15T21:20:02.024Z,3.61
2022-12-15T21:22:36.849Z,3.42
2022-12-15T21:25:25.999Z,3.27
2022-12-15T21:28:01.833Z,3.15
2022-12-15T21:30:36.361Z,3.10
2022-12-15T21:33:11.265Z,3.01
2022-12-15T21:35:47.335Z,3.05
2022-12-15T21:38:41.583Z,3.04
2022-12-15T21:41:18.615Z,2.95
2022-12-15T21:43:54.970Z,2.86
2022-12-15T21:46:29.959Z,2.81
2022-12-15T21:49:17.558Z,2.80
2022-12-15T21:51:55.010Z,2.68
2022-12-15T21:54:33.791Z,2.63
2022-12-15T21:57:08.153Z,2.66
2022-12-15T21:59:44.354Z,2.58
2022-12-15T22:02:26.830Z,2.55
2022-12-15T22:05:01.708Z,2.57
2022-12-15T22:07:35.832Z,2.46
2022-12-15T22:10:10.968Z,2.44
2022-12-15T22:12:51.436Z,2.49
2022-12-15T22:15:30.460Z,2.51
2022-12-15T22:18:06.212Z,2.59
2022-12-15T22:20:42.514Z,2.52
2022-12-15T22:23:17.158Z,2.66
2022-12-15T22:25:56.189Z,2.60
2022-12-15T22:28:30.989Z,2.51
2022-12-15T22:31:07.934Z,2.60
2022-12-15T22:33:43.069Z,2.60
2022-12-15T22:36:17.581Z,2.58
2022-12-15T22:38:51.751Z,2.75
2022-12-15T22:41:26.398Z,2.79
2022-12-15T22:44:00.552Z,2.68
2022-12-15T22:46:36.574Z,2.80
2022-12-15T22:49:16.271Z,2.67
2022-12-15T22:51:50.859Z,2.72
2022-12-15T22:54:27.151Z,2.77
2022-12-15T22:57:05.411Z,2.78
2022-12-15T22:59:43.678Z,2.82
2022-12-15T23:02:19.548Z,2.81
2022-12-15T23:04:53.807Z,2.84
2022-12-15T23:07:29.597Z,2.87
2022-12-15T23:10:21.553Z,2.83
2022-12-15T23:12:55.943Z,2.83
2022-12-15T23:15:48.339Z,2.73
2022-12-15T23:18:24.239Z,2.76
2022-12-15T23:20:58.652Z,2.71
2022-12-15T23:23:33.449Z,2.76
2022-12-15T23:26:07.988Z,2.63
2022-12-15T23:28:43.327Z,2.60
2022-12-15T23:31:17.838Z,2.66
2022-12-15T23:33:54.095Z,2.64
2022-12-15T23:36:28.708Z,2.67
2022-12-15T23:39:03.241Z,2.66
2022-12-15T23:41:37.327Z,2.64
2022-12-15T23:44:14.328Z,2.61
2022-12-15T23:46:48.522Z,2.62
2022-12-15T23:49:24.423Z,2.62
2022-12-15T23:51:58.636Z,2.52
2022-12-15T23:54:33.115Z,2.57
2022-12-15T23:57:07.320Z,2.59
2022-12-15T23:59:42.725Z,2.60
